Emelina — ZCXF3 — position and weather

sailwx.info

Track history (hours):
 
Tides and Currents Weather Stations Pressure Air Temp Water Temp Dewpoint Dewpoint Depression Visibility Wind Speed Wind Dir Waves Ship Positions

Emelina

Last reported at 2018-Jul-22 04:29 UTC. Time now 2018-Jul-22 08:41 UTC.
Position N 41°17' W 070°06'.

Length 51 m; draft 3.5 m.

Type: Pleasure craft. MMSI: 319869000.

Date/timePositionNaut miles runAvg speedWind from/ knotsBaromVisibWave heightAir tempDewpointWater temp
2018-Jul-22 04:29N 41°17' W 070°06'0 0.0
2018-Jul-22 03:41N 41°17' W 070°06'0 0.0
2018-Jul-21 20:59N 41°17' W 070°06'0 0.0
2018-Jul-20 09:38N 41°17' W 070°06'0 0.0
2018-Jul-20 09:08N 41°17' W 070°06'0 0.0
2018-Jul-20 07:53N 41°17' W 070°06'  
2018-Jul-14 20:04N 41°17' W 070°06'0 0.1
2018-Jul-14 17:33N 41°17' W 070°05'2 6.9
2018-Jul-14 17:16N 41°19' W 070°06'0 0.2
2018-Jul-14 15:20N 41°19' W 070°06'614.6
2018-Jul-14 14:58N 41°24' W 070°09'3015.6
2018-Jul-14 13:01N 41°25' W 070°49'016.2
2018-Jul-14 13:00N 41°25' W 070°50'815.3
2018-Jul-14 12:30N 41°21' W 070°58'813.8
2018-Jul-14 11:54N 41°16' W 071°08'2713.1
2018-Jul-14 09:52N 41°13' W 071°43'615.9
2018-Jul-14 09:30N 41°10' W 071°50'815.4
2018-Jul-14 09:00N 41°05' W 071°58'2 3.2
2018-Jul-14 08:16N 41°03' W 071°58'0 0.0
2018-Jul-14 07:55N 41°03' W 071°58'15 0.9
2018-Jul-13 14:52N 41°06' W 072°18'4 8.9
2018-Jul-13 14:27N 41°04' W 072°22'3 0.6
2018-Jul-13 09:17N 41°03' W 072°18'0 0.0
2018-Jul-13 07:08N 41°03' W 072°18'0 0.0
2018-Jul-13 06:44N 41°03' W 072°18'0 0.0
2018-Jul-13 06:29N 41°03' W 072°18'0 0.0
2018-Jul-13 05:59N 41°03' W 072°18'0 0.0
2018-Jul-13 05:14N 41°03' W 072°18'4 0.2
2018-Jul-12 12:46N 41°04' W 072°23'  
Track history (hours):
 
Tides and Currents Weather Stations Pressure Air Temp Water Temp Dewpoint Dewpoint Depression Visibility Wind Speed Wind Dir Waves Ship Positions

Emelina

Last reported at 2018-Jul-22 04:29 UTC. Time now 2018-Jul-22 08:41 UTC.
Position N 41°17' W 070°06'.

Length 51 m; draft 3.5 m.

Type: Pleasure craft. MMSI: 319869000.

Date/timePositionNaut miles runAvg speedWind from/ knotsBaromVisibWave heightAir tempDewpointWater temp
2018-Jul-22 04:29N 41°17' W 070°06'0 0.0
2018-Jul-22 03:41N 41°17' W 070°06'0 0.0
2018-Jul-21 20:59N 41°17' W 070°06'0 0.0
2018-Jul-20 09:38N 41°17' W 070°06'0 0.0
2018-Jul-20 09:08N 41°17' W 070°06'0 0.0
2018-Jul-20 07:53N 41°17' W 070°06'  
2018-Jul-14 20:04N 41°17' W 070°06'0 0.1
2018-Jul-14 17:33N 41°17' W 070°05'2 6.9
2018-Jul-14 17:16N 41°19' W 070°06'0 0.2
2018-Jul-14 15:20N 41°19' W 070°06'614.6
2018-Jul-14 14:58N 41°24' W 070°09'3015.6
2018-Jul-14 13:01N 41°25' W 070°49'016.2
2018-Jul-14 13:00N 41°25' W 070°50'815.3
2018-Jul-14 12:30N 41°21' W 070°58'813.8
2018-Jul-14 11:54N 41°16' W 071°08'2713.1
2018-Jul-14 09:52N 41°13' W 071°43'615.9
2018-Jul-14 09:30N 41°10' W 071°50'815.4
2018-Jul-14 09:00N 41°05' W 071°58'2 3.2
2018-Jul-14 08:16N 41°03' W 071°58'0 0.0
2018-Jul-14 07:55N 41°03' W 071°58'15 0.9
2018-Jul-13 14:52N 41°06' W 072°18'4 8.9
2018-Jul-13 14:27N 41°04' W 072°22'3 0.6
2018-Jul-13 09:17N 41°03' W 072°18'0 0.0
2018-Jul-13 07:08N 41°03' W 072°18'0 0.0
2018-Jul-13 06:44N 41°03' W 072°18'0 0.0
2018-Jul-13 06:29N 41°03' W 072°18'0 0.0
2018-Jul-13 05:59N 41°03' W 072°18'0 0.0
2018-Jul-13 05:14N 41°03' W 072°18'4 0.2
2018-Jul-12 12:46N 41°04' W 072°23'  

Dump ship's entire track history